Time;durP1;ratioP1;P1;durP2;ratioP2;P2;SDS_P1;SDS_P2;PMS_P1;PMS_P2;Temp;Humidity;BMP_temperature;BMP_pressure;BME280_temperature;BME280_humidity;BME280_pressure;Samples;Min_cycle;Max_cycle;Signal;HPM_P1;HPM_P2
2022/03/11 00:00:27;;;;;;;9.55;6.43;;;7.10;65.40;;;;;;6125123;23;92408;-70
2022/03/11 00:02:54;;;;;;;8.80;6.70;;;7.00;65.40;;;;;;6125077;23;92414;-76
2022/03/11 00:05:21;;;;;;;9.95;6.20;;;7.00;65.50;;;;;;6124941;23;93307;-70
2022/03/11 00:07:48;;;;;;;10.25;5.70;;;7.00;65.80;;;;;;6123316;23;95367;-71
2022/03/11 00:10:15;;;;;;;9.40;6.75;;;6.90;66.30;;;;;;6125206;22;92569;-75
2022/03/11 00:12:42;;;;;;;8.90;6.82;;;6.90;66.30;;;;;;6125064;22;93299;-75
2022/03/11 00:15:09;;;;;;;9.75;6.63;;;6.90;66.50;;;;;;6121887;23;95629;-75
2022/03/11 00:17:37;;;;;;;7.38;6.57;;;6.90;66.70;;;;;;6123214;23;97791;-75
2022/03/11 00:20:06;;;;;;;9.10;6.60;;;6.80;66.60;;;;;;6125422;23;99652;-75
2022/03/11 00:22:34;;;;;;;10.13;6.75;;;6.80;67.70;;;;;;6124500;23;92390;-75
2022/03/11 00:25:02;;;;;;;9.45;6.70;;;6.80;67.30;;;;;;6126129;23;93241;-75
2022/03/11 00:27:29;;;;;;;9.85;7.20;;;6.70;67.60;;;;;;6124923;23;92937;-75
2022/03/11 00:29:56;;;;;;;10.00;6.65;;;6.70;67.90;;;;;;6124749;23;92442;-75
2022/03/11 00:32:23;;;;;;;12.48;7.00;;;6.70;68.00;;;;;;6127133;22;91652;-75
2022/03/11 00:34:50;;;;;;;10.18;7.03;;;6.70;68.10;;;;;;6126490;23;92507;-75
2022/03/11 00:37:17;;;;;;;11.98;7.10;;;6.70;68.20;;;;;;6124772;23;92855;-75
2022/03/11 00:39:44;;;;;;;9.07;6.57;;;6.60;68.10;;;;;;6125161;22;94684;-75
2022/03/11 00:42:11;;;;;;;8.65;5.95;;;6.60;68.60;;;;;;6126236;22;92397;-75
2022/03/11 00:44:39;;;;;;;11.30;7.72;;;6.60;68.60;;;;;;6126388;22;95716;-76
2022/03/11 00:47:07;;;;;;;8.48;6.40;;;6.60;68.90;;;;;;6124827;22;93271;-75
2022/03/11 00:49:35;;;;;;;10.00;7.57;;;6.60;69.20;;;;;;6125030;23;92413;-75
2022/03/11 00:52:03;;;;;;;12.18;7.97;;;6.50;69.30;;;;;;6126268;22;92410;-75
2022/03/11 00:54:31;;;;;;;13.40;7.75;;;6.50;69.30;;;;;;6124987;23;93208;-75
2022/03/11 00:56:57;;;;;;;12.05;7.53;;;6.50;69.70;;;;;;6124663;23;95555;-75
2022/03/11 00:59:24;;;;;;;13.02;7.90;;;6.50;69.70;;;;;;6126239;22;92288;-75
2022/03/11 01:01:51;;;;;;;12.70;8.02;;;6.40;70.40;;;;;;6125032;23;92693;-75
2022/03/11 01:04:18;;;;;;;13.43;7.53;;;6.40;69.90;;;;;;6098096;23;98051;-75
2022/03/11 01:06:46;;;;;;;10.88;8.00;;;6.40;70.10;;;;;;6124798;23;95214;-75
2022/03/11 01:09:12;;;;;;;13.75;7.70;;;6.40;70.30;;;;;;6124860;23;92603;-75
2022/03/11 01:11:40;;;;;;;14.95;8.05;;;6.40;70.50;;;;;;6126419;22;92419;-75
2022/03/11 01:14:07;;;;;;;11.32;8.70;;;6.40;70.70;;;;;;6124236;23;94203;-75
2022/03/11 01:16:34;;;;;;;11.73;8.30;;;6.30;70.80;;;;;;6124691;23;93036;-75
2022/03/11 01:19:02;;;;;;;14.50;9.07;;;6.30;71.00;;;;;;6126095;22;92352;-75
2022/03/11 01:21:28;;;;;;;12.50;8.82;;;6.30;71.40;;;;;;6100525;23;91754;-75
2022/03/11 01:23:55;;;;;;;11.82;9.57;;;6.30;71.30;;;;;;6126074;22;98574;-75
2022/03/11 01:26:22;;;;;;;15.27;9.00;;;6.20;71.50;;;;;;6099881;23;92507;-75
2022/03/11 01:28:50;;;;;;;14.15;9.40;;;6.20;71.70;;;;;;6125002;22;94825;-75
2022/03/11 01:31:17;;;;;;;15.65;9.63;;;6.20;71.90;;;;;;6125811;22;92412;-75
2022/03/11 01:33:46;;;;;;;14.68;9.15;;;6.10;72.00;;;;;;6124548;23;95601;-75
2022/03/11 01:36:13;;;;;;;12.60;9.00;;;6.10;72.40;;;;;;6124558;23;92954;-75
2022/03/11 01:38:41;;;;;;;15.20;9.20;;;6.10;72.40;;;;;;6126538;23;92777;-75
2022/03/11 01:41:09;;;;;;;12.25;9.30;;;6.00;73.20;;;;;;6125977;22;92411;-75
2022/03/11 01:44:02;;;;;;;17.20;10.70;;;6.00;72.90;;;;;;6126029;22;93064;-75
2022/03/11 01:46:30;;;;;;;16.23;10.32;;;6.00;73.30;;;;;;6125900;22;93040;-75
2022/03/11 01:48:58;;;;;;;11.70;8.05;;;5.90;73.30;;;;;;6125619;22;92475;-75
2022/03/11 01:51:30;;;;;;;15.93;10.32;;;5.90;73.60;;;;;;6124561;23;92451;-75
2022/03/11 01:53:57;;;;;;;16.52;10.38;;;5.90;73.80;;;;;;6123741;23;95740;-75
2022/03/11 01:56:25;;;;;;;15.68;10.65;;;5.80;74.00;;;;;;6123234;23;95464;-75
2022/03/11 01:58:55;;;;;;;13.57;10.75;;;5.80;74.00;;;;;;6125386;23;92332;-75
2022/03/11 02:01:23;;;;;;;15.93;11.43;;;5.80;74.30;;;;;;6125361;22;92760;-75
2022/03/11 02:03:51;;;;;;;16.95;12.13;;;5.80;74.30;;;;;;6098973;23;96067;-75
2022/03/11 02:06:20;;;;;;;20.55;12.25;;;5.80;74.50;;;;;;6123638;23;92646;-75
2022/03/11 02:08:47;;;;;;;19.27;11.30;;;5.80;74.50;;;;;;6125573;22;92365;-75
2022/03/11 02:11:14;;;;;;;18.08;12.48;;;5.70;74.80;;;;;;6124176;23;91736;-75
2022/03/11 02:13:47;;;;;;;21.08;12.77;;;5.70;74.70;;;;;;6123514;23;95513;-75
2022/03/11 02:16:15;;;;;;;21.02;12.85;;;5.70;74.70;;;;;;6123396;23;95505;-75
2022/03/11 02:18:42;;;;;;;18.65;13.23;;;5.70;74.80;;;;;;6124091;22;94715;-75
2022/03/11 02:21:11;;;;;;;18.30;12.65;;;5.60;75.00;;;;;;6098927;23;92443;-75
2022/03/11 02:23:47;;;;;;;19.92;14.57;;;5.60;75.30;;;;;;6123452;23;94388;-75
2022/03/11 02:26:20;;;;;;;18.77;13.13;;;5.60;75.40;;;;;;6099576;23;95628;-75
2022/03/11 02:28:48;;;;;;;17.67;13.02;;;5.60;75.60;;;;;;6125395;22;92481;-75
2022/03/11 02:31:16;;;;;;;20.25;14.02;;;5.50;75.50;;;;;;6125206;22;92413;-75
2022/03/11 02:33:44;;;;;;;21.92;14.20;;;5.50;75.50;;;;;;6123540;23;92414;-75
2022/03/11 02:36:11;;;;;;;19.42;13.25;;;5.50;75.60;;;;;;6125405;22;92913;-75
2022/03/11 02:38:38;;;;;;;20.02;13.52;;;5.50;75.60;;;;;;6125573;22;92388;-75
2022/03/11 02:41:06;;;;;;;18.35;14.30;;;5.50;75.80;;;;;;6123770;23;92557;-75
2022/03/11 02:43:33;;;;;;;19.92;14.20;;;5.40;75.90;;;;;;6120994;23;108609;-75
2022/03/11 02:46:00;;;;;;;23.02;14.80;;;5.40;75.90;;;;;;6125096;22;95388;-75
2022/03/11 02:48:27;;;;;;;21.48;14.75;;;5.40;76.00;;;;;;6123722;23;92492;-75
2022/03/11 02:50:55;;;;;;;25.10;16.25;;;5.30;76.20;;;;;;6125324;23;92405;-75
2022/03/11 02:53:22;;;;;;;22.13;15.68;;;5.30;76.20;;;;;;6123236;23;95678;-75
2022/03/11 02:55:49;;;;;;;28.73;14.48;;;5.30;76.30;;;;;;6124390;22;93056;-75
2022/03/11 02:58:16;;;;;;;21.13;14.02;;;5.30;76.40;;;;;;6123533;23;92324;-75
2022/03/11 03:00:43;;;;;;;22.45;15.35;;;5.20;76.40;;;;;;6123712;23;91788;-75
2022/03/11 03:03:11;;;;;;;21.27;14.32;;;5.30;76.50;;;;;;6123235;23;96445;-75
2022/03/11 03:05:38;;;;;;;23.73;15.00;;;5.20;76.40;;;;;;6098687;23;94714;-75
2022/03/11 03:08:06;;;;;;;23.63;14.98;;;5.20;76.50;;;;;;6123601;23;94758;-75
2022/03/11 03:10:33;;;;;;;24.27;15.45;;;5.20;76.70;;;;;;6123202;23;92448;-75
2022/03/11 03:13:02;;;;;;;22.20;15.63;;;5.10;76.60;;;;;;6098526;23;95899;-75
2022/03/11 03:15:30;;;;;;;24.20;16.00;;;5.10;76.80;;;;;;6098321;23;95553;-75
2022/03/11 03:17:57;;;;;;;23.25;15.80;;;5.10;76.80;;;;;;6125120;23;92395;-75
2022/03/11 03:20:23;;;;;;;23.30;15.55;;;5.10;77.00;;;;;;6124749;22;92412;-75
2022/03/11 03:22:51;;;;;;;24.00;16.75;;;5.00;77.00;;;;;;6124754;22;92436;-75
2022/03/11 03:25:18;;;;;;;22.42;16.23;;;5.00;77.00;;;;;;6122906;23;106251;-75
2022/03/11 03:27:45;;;;;;;23.25;16.20;;;5.00;77.10;;;;;;6124865;22;92712;-75
2022/03/11 03:30:12;;;;;;;23.42;16.70;;;5.00;77.30;;;;;;6122953;23;92549;-75
2022/03/11 03:32:43;;;;;;;21.67;15.73;;;4.90;77.40;;;;;;6123234;22;95632;-75
2022/03/11 03:35:11;;;;;;;23.75;16.65;;;4.90;77.30;;;;;;6098491;23;97936;-75
2022/03/11 03:37:38;;;;;;;27.33;17.73;;;4.90;77.20;;;;;;6123449;23;92360;-75
2022/03/11 03:40:07;;;;;;;24.35;15.80;;;4.90;77.30;;;;;;6124877;22;92378;-75
2022/03/11 03:42:35;;;;;;;27.35;16.67;;;4.80;77.40;;;;;;6122691;23;95633;-75
2022/03/11 03:45:04;;;;;;;25.08;16.85;;;4.80;77.40;;;;;;6124695;22;93048;-75
2022/03/11 03:47:31;;;;;;;26.63;17.25;;;4.80;77.60;;;;;;6124996;23;92885;-75
2022/03/11 03:49:58;;;;;;;26.25;16.45;;;4.80;77.50;;;;;;6123856;23;92409;-75
2022/03/11 03:52:24;;;;;;;19.25;13.60;;;4.70;77.70;;;;;;6098103;23;95577;-75
2022/03/11 03:54:51;;;;;;;22.67;15.52;;;4.70;77.60;;;;;;6123908;23;95660;-75
2022/03/11 03:57:18;;;;;;;25.38;17.15;;;4.70;77.80;;;;;;6124977;22;94765;-75
2022/03/11 03:59:45;;;;;;;26.63;16.73;;;4.70;77.80;;;;;;6126269;23;92458;-75
2022/03/11 04:02:12;;;;;;;27.38;17.98;;;4.60;77.80;;;;;;6123862;23;95717;-75
2022/03/11 04:04:39;;;;;;;23.70;17.13;;;4.60;78.00;;;;;;6124347;23;93064;-75
2022/03/11 04:07:06;;;;;;;28.75;17.63;;;4.60;77.80;;;;;;6124692;23;92584;-75
2022/03/11 04:09:33;;;;;;;27.55;17.55;;;4.60;77.70;;;;;;6123710;23;93414;-75
2022/03/11 04:12:00;;;;;;;25.75;17.08;;;4.60;77.80;;;;;;6099453;23;95608;-75
2022/03/11 04:14:27;;;;;;;24.20;15.88;;;4.50;77.90;;;;;;6124471;23;95577;-75
2022/03/11 04:16:55;;;;;;;23.48;17.05;;;4.50;78.10;;;;;;6099791;23;92378;-75
2022/03/11 04:19:22;;;;;;;25.40;16.38;;;4.50;78.00;;;;;;6099611;23;93154;-75
2022/03/11 04:21:49;;;;;;;25.52;16.88;;;4.50;78.00;;;;;;6123962;22;95597;-75
2022/03/11 04:24:17;;;;;;;29.95;16.98;;;4.40;78.10;;;;;;6124048;23;97893;-75
2022/03/11 04:26:45;;;;;;;22.75;16.30;;;4.40;77.90;;;;;;6126085;22;92338;-75
2022/03/11 04:29:12;;;;;;;23.38;15.43;;;4.40;78.10;;;;;;6125490;23;95840;-75
2022/03/11 04:31:40;;;;;;;28.58;17.70;;;4.40;78.20;;;;;;6125684;22;93146;-75
2022/03/11 04:34:07;;;;;;;21.40;15.50;;;4.40;78.10;;;;;;6126052;23;92932;-75
2022/03/11 04:36:38;;;;;;;25.33;16.02;;;4.30;78.30;;;;;;6125798;22;92313;-75
2022/03/11 04:39:06;;;;;;;23.83;16.23;;;4.30;78.20;;;;;;6124995;23;91745;-75
2022/03/11 04:41:36;;;;;;;28.35;17.73;;;4.30;78.50;;;;;;6099508;23;93281;-75
2022/03/11 04:44:04;;;;;;;26.80;18.52;;;4.30;78.60;;;;;;6124335;23;93130;-75
2022/03/11 04:46:31;;;;;;;25.25;16.70;;;4.20;78.50;;;;;;6124053;23;94828;-75
2022/03/11 04:48:58;;;;;;;27.00;18.00;;;4.20;78.50;;;;;;6099856;23;92420;-75
2022/03/11 04:51:26;;;;;;;22.90;15.48;;;4.10;78.60;;;;;;6125710;23;93184;-74
2022/03/11 04:53:55;;;;;;;24.27;16.10;;;4.10;78.70;;;;;;6099305;23;94609;-75
2022/03/11 04:56:21;;;;;;;24.95;16.83;;;4.10;78.70;;;;;;6123872;23;92889;-75
2022/03/11 04:58:48;;;;;;;26.10;15.88;;;4.10;78.80;;;;;;6125871;22;92410;-75
2022/03/11 05:01:16;;;;;;;22.80;16.50;;;4.00;78.80;;;;;;6123986;23;94379;-74
2022/03/11 05:03:43;;;;;;;24.10;14.82;;;4.00;78.70;;;;;;6125780;22;93027;-75
2022/03/11 05:06:10;;;;;;;25.52;17.25;;;4.00;78.80;;;;;;6125174;22;92781;-75
2022/03/11 05:08:37;;;;;;;26.60;17.25;;;4.00;78.70;;;;;;6123805;23;92534;-75
2022/03/11 05:11:05;;;;;;;20.40;13.98;;;4.00;78.70;;;;;;6122462;23;95578;-75
2022/03/11 05:13:32;;;;;;;25.80;17.48;;;3.90;78.90;;;;;;6123628;23;96072;-75
2022/03/11 05:15:59;;;;;;;24.70;16.10;;;4.00;79.10;;;;;;6125585;23;92396;-75
2022/03/11 05:18:27;;;;;;;24.75;16.83;;;4.00;79.10;;;;;;6123910;23;92486;-75
2022/03/11 05:20:54;;;;;;;25.05;16.42;;;4.00;79.10;;;;;;6123352;23;95646;-75
2022/03/11 05:23:21;;;;;;;24.08;16.90;;;3.90;79.00;;;;;;6123795;23;95478;-75
2022/03/11 05:25:49;;;;;;;26.95;16.77;;;3.90;79.00;;;;;;6125132;22;100271;-75
2022/03/11 05:28:16;;;;;;;22.60;15.50;;;3.90;78.90;;;;;;6124441;23;91750;-75
2022/03/11 05:30:43;;;;;;;22.15;15.27;;;3.90;78.90;;;;;;6099394;23;92456;-75
2022/03/11 05:33:14;;;;;;;26.45;16.00;;;3.80;79.10;;;;;;6124049;23;95465;-75
2022/03/11 05:35:41;;;;;;;26.15;17.83;;;3.80;79.10;;;;;;6122547;23;94924;-75
2022/03/11 05:38:08;;;;;;;24.77;15.40;;;3.80;78.80;;;;;;6125546;22;92431;-75
2022/03/11 05:40:35;;;;;;;22.40;14.60;;;3.80;78.90;;;;;;6123828;23;93172;-75
2022/03/11 05:43:03;;;;;;;24.70;16.25;;;3.80;78.90;;;;;;6125966;22;92893;-75
2022/03/11 05:45:31;;;;;;;24.90;15.68;;;3.80;79.20;;;;;;6123859;23;98890;-75
2022/03/11 05:47:59;;;;;;;25.77;16.88;;;3.80;78.90;;;;;;6124132;23;92511;-75
2022/03/11 05:50:26;;;;;;;24.45;16.23;;;3.80;78.70;;;;;;6123735;23;95881;-75
2022/03/11 05:52:53;;;;;;;24.35;16.23;;;3.70;78.70;;;;;;6124193;23;92947;-74
2022/03/11 05:55:20;;;;;;;22.80;15.82;;;3.70;78.60;;;;;;6099025;23;92421;-75
2022/03/11 05:57:46;;;;;;;27.38;16.73;;;3.70;78.70;;;;;;6125342;22;92378;-75
2022/03/11 06:00:14;;;;;;;24.52;16.55;;;3.70;78.50;;;;;;6122222;23;95513;-69
2022/03/11 06:02:42;;;;;;;26.05;16.77;;;3.70;78.60;;;;;;6122340;23;98383;-70
2022/03/11 06:05:10;;;;;;;24.80;16.25;;;3.70;78.60;;;;;;6098357;23;92755;-69
2022/03/11 06:07:38;;;;;;;23.30;15.98;;;3.70;78.40;;;;;;6124493;23;92382;-70
2022/03/11 06:10:06;;;;;;;23.35;15.85;;;3.70;78.60;;;;;;6124672;22;93279;-74
2022/03/11 06:12:34;;;;;;;24.45;15.75;;;3.70;78.60;;;;;;6099402;23;95624;-75
2022/03/11 06:15:06;;;;;;;26.75;16.23;;;3.70;78.30;;;;;;6098700;23;92391;-70
2022/03/11 06:17:33;;;;;;;23.00;15.98;;;3.70;78.30;;;;;;6125177;22;91651;-70
2022/03/11 06:20:00;;;;;;;26.23;16.42;;;3.70;78.10;;;;;;6124373;22;92468;-70
2022/03/11 06:22:27;;;;;;;24.02;16.02;;;3.70;78.00;;;;;;6098207;23;95830;-74
2022/03/11 06:24:54;;;;;;;27.42;19.30;;;3.70;78.10;;;;;;6123815;22;94689;-75
2022/03/11 06:27:24;;;;;;;23.98;17.38;;;3.90;78.10;;;;;;6123280;23;101618;-75
2022/03/11 06:29:52;;;;;;;22.77;16.83;;;4.10;77.30;;;;;;6123343;23;94826;-70
2022/03/11 06:32:19;;;;;;;23.75;16.83;;;4.40;76.30;;;;;;6123317;23;92946;-75
2022/03/11 06:34:50;;;;;;;22.98;16.23;;;4.60;75.40;;;;;;6124934;23;92291;-76
2022/03/11 06:37:17;;;;;;;21.92;14.10;;;4.70;74.60;;;;;;6123719;23;92453;-75
2022/03/11 06:39:44;;;;;;;23.20;15.68;;;4.80;73.60;;;;;;6123239;23;96028;-75
2022/03/11 06:42:13;;;;;;;23.83;17.02;;;5.00;73.50;;;;;;6125386;22;91936;-75
2022/03/11 06:44:40;;;;;;;21.65;15.00;;;5.10;73.10;;;;;;6125475;22;92892;-76
2022/03/11 06:47:08;;;;;;;25.27;14.82;;;5.20;72.30;;;;;;6124677;22;98470;-76
2022/03/11 06:49:40;;;;;;;24.45;13.98;;;5.30;72.00;;;;;;6122142;23;95580;-75
2022/03/11 06:52:07;;;;;;;21.92;14.80;;;5.30;72.00;;;;;;6124753;22;95456;-75
2022/03/11 06:54:34;;;;;;;24.10;16.75;;;5.30;71.70;;;;;;6124944;22;92382;-75
2022/03/11 06:57:02;;;;;;;23.08;16.33;;;5.40;71.50;;;;;;6122924;23;93256;-75
2022/03/11 06:59:29;;;;;;;20.25;14.32;;;5.50;70.90;;;;;;6123101;23;95967;-76
2022/03/11 07:01:56;;;;;;;21.10;14.82;;;5.60;70.30;;;;;;6122931;23;95578;-75
2022/03/11 07:04:27;;;;;;;22.33;15.65;;;5.70;70.70;;;;;;6125361;23;92316;-75
2022/03/11 07:06:54;;;;;;;21.90;14.95;;;5.70;70.30;;;;;;6125508;23;91681;-75
2022/03/11 07:09:21;;;;;;;22.83;14.48;;;5.80;69.60;;;;;;6124776;22;93249;-75
2022/03/11 07:11:51;;;;;;;23.08;15.35;;;5.90;69.80;;;;;;6098307;23;101208;-75
2022/03/11 07:14:17;;;;;;;22.08;16.42;;;6.10;69.20;;;;;;6121803;23;94780;-75
2022/03/11 07:16:44;;;;;;;24.13;15.63;;;6.30;68.50;;;;;;6123350;23;93127;-75
2022/03/11 07:19:11;;;;;;;20.02;15.07;;;6.60;67.80;;;;;;6124898;22;93033;-75
2022/03/11 07:21:42;;;;;;;22.20;17.05;;;6.70;66.50;;;;;;6123168;23;92954;-75
2022/03/11 07:24:09;;;;;;;22.65;17.02;;;6.80;66.80;;;;;;6124714;22;92332;-75
2022/03/11 07:26:37;;;;;;;22.98;16.60;;;7.00;66.00;;;;;;6124692;22;92419;-76
2022/03/11 07:29:04;;;;;;;18.83;14.10;;;7.10;65.80;;;;;;6124736;22;93209;-76
2022/03/11 07:31:31;;;;;;;25.83;15.98;;;7.10;65.90;;;;;;6124678;23;95427;-75
2022/03/11 07:33:58;;;;;;;23.67;16.33;;;7.20;65.30;;;;;;6125902;23;94554;-75
2022/03/11 07:36:25;;;;;;;21.50;15.00;;;7.30;64.50;;;;;;6124691;23;92474;-76
2022/03/11 07:38:53;;;;;;;22.08;16.20;;;7.30;64.50;;;;;;6124653;22;95525;-75
2022/03/11 07:41:28;;;;;;;19.23;14.75;;;7.40;64.40;;;;;;6124246;23;95392;-76
2022/03/11 07:43:55;;;;;;;23.80;15.60;;;7.40;63.80;;;;;;6123962;23;92463;-76
2022/03/11 07:46:39;;;;;;;19.63;15.52;;;7.50;64.20;;;;;;6126177;22;92371;-76
2022/03/11 07:49:06;;;;;;;21.58;15.88;;;7.40;63.70;;;;;;6099528;23;93189;-76
2022/03/11 07:51:33;;;;;;;18.17;14.90;;;7.40;63.70;;;;;;6126104;23;93234;-76
2022/03/11 07:54:00;;;;;;;24.45;16.10;;;7.50;64.10;;;;;;6124433;23;92652;-75
2022/03/11 07:56:27;;;;;;;21.38;17.35;;;7.60;63.60;;;;;;6126103;22;91714;-76
2022/03/11 07:58:56;;;;;;;24.15;17.75;;;7.70;63.20;;;;;;6125773;22;97621;-75
2022/03/11 08:01:23;;;;;;;22.48;20.08;;;7.80;62.50;;;;;;6125801;22;92979;-76
2022/03/11 08:03:50;;;;;;;22.60;20.17;;;8.10;61.60;;;;;;6124566;23;94799;-76
2022/03/11 08:06:17;;;;;;;23.10;19.83;;;8.30;61.40;;;;;;6126035;22;92447;-76
2022/03/11 08:08:44;;;;;;;23.70;20.65;;;8.70;60.70;;;;;;6125718;22;93221;-76
2022/03/11 08:11:14;;;;;;;34.58;32.15;;;9.10;59.40;;;;;;6125592;22;93062;-76
2022/03/11 08:13:41;;;;;;;31.63;29.25;;;9.30;57.70;;;;;;6125856;22;92378;-76
2022/03/11 08:16:11;;;;;;;24.55;21.85;;;9.50;56.90;;;;;;6124075;23;92399;-76
2022/03/11 08:18:38;;;;;;;29.65;27.13;;;10.10;56.50;;;;;;6099328;23;95728;-76
2022/03/11 08:21:06;;;;;;;25.35;23.13;;;10.10;54.40;;;;;;6125960;22;92764;-76
2022/03/11 08:23:33;;;;;;;25.13;22.70;;;10.20;54.30;;;;;;6124404;23;92475;-76
2022/03/11 08:26:00;;;;;;;27.85;25.58;;;10.50;54.00;;;;;;6125601;22;92424;-76
2022/03/11 08:28:27;;;;;;;23.73;20.98;;;10.50;53.20;;;;;;6123683;22;105145;-76
2022/03/11 08:30:55;;;;;;;20.58;17.58;;;10.50;53.60;;;;;;6099804;23;95058;-76
2022/03/11 08:33:24;;;;;;;21.55;16.77;;;10.20;52.70;;;;;;6124459;23;92373;-76
2022/03/11 08:36:08;;;;;;;19.90;16.15;;;10.00;53.40;;;;;;6124532;23;92542;-76
2022/03/11 08:38:39;;;;;;;23.42;15.15;;;9.80;54.10;;;;;;6123715;23;93082;-71
2022/03/11 08:41:08;;;;;;;22.70;17.05;;;9.80;55.20;;;;;;6123331;23;93390;-71
2022/03/11 08:43:38;;;;;;;22.10;14.95;;;9.50;55.50;;;;;;6099389;23;92330;-71
2022/03/11 08:46:07;;;;;;;17.00;13.10;;;9.30;56.30;;;;;;6125510;22;92109;-71
2022/03/11 08:48:35;;;;;;;20.60;16.30;;;8.90;56.90;;;;;;6123596;23;93283;-71
2022/03/11 08:51:02;;;;;;;19.92;14.45;;;8.70;57.70;;;;;;6124817;22;92547;-71
2022/03/11 08:53:29;;;;;;;23.95;17.25;;;8.40;57.90;;;;;;6121737;23;99361;-71
2022/03/11 08:55:56;;;;;;;18.17;13.00;;;8.30;58.50;;;;;;6124709;22;92477;-71
2022/03/11 08:58:23;;;;;;;18.63;12.52;;;8.10;59.90;;;;;;6123496;23;93270;-71
2022/03/11 09:00:50;;;;;;;17.10;13.90;;;8.00;60.00;;;;;;6123165;23;94078;-71
2022/03/11 09:03:19;;;;;;;20.95;14.63;;;7.90;59.70;;;;;;6123139;23;92351;-70
2022/03/11 09:06:18;;;;;;;21.58;15.40;;;7.80;59.50;;;;;;6124904;23;92396;-71
2022/03/11 09:08:46;;;;;;;20.40;14.23;;;7.70;59.80;;;;;;6123334;23;96116;-70
2022/03/11 09:11:13;;;;;;;20.40;15.32;;;7.60;60.40;;;;;;6099340;23;93065;-71
2022/03/11 09:13:43;;;;;;;21.55;12.93;;;7.70;60.90;;;;;;6123320;23;92531;-71
2022/03/11 09:16:10;;;;;;;23.42;15.27;;;7.70;61.00;;;;;;6124909;22;92424;-71
2022/03/11 09:18:40;;;;;;;20.95;15.30;;;7.70;59.70;;;;;;6123415;22;95477;-71
2022/03/11 09:21:07;;;;;;;18.75;14.05;;;7.80;60.00;;;;;;6124563;22;95156;-70
2022/03/11 09:23:34;;;;;;;20.90;16.00;;;7.80;60.00;;;;;;6123343;23;92510;-71
2022/03/11 09:26:01;;;;;;;19.70;14.75;;;7.80;59.60;;;;;;6125189;22;92418;-71
2022/03/11 09:28:28;;;;;;;26.13;16.38;;;7.80;60.30;;;;;;6098585;23;95989;-71
2022/03/11 09:30:55;;;;;;;20.27;15.00;;;7.80;59.80;;;;;;6123405;23;92798;-71
2022/03/11 09:33:22;;;;;;;19.60;14.18;;;7.90;60.10;;;;;;6123216;23;92794;-71
2022/03/11 09:35:49;;;;;;;19.67;14.23;;;7.90;59.50;;;;;;6125498;22;91712;-70
2022/03/11 09:38:18;;;;;;;17.80;14.45;;;8.00;59.70;;;;;;6124539;22;93126;-71
2022/03/11 09:40:45;;;;;;;22.60;15.30;;;8.00;59.40;;;;;;6124988;22;92870;-71
2022/03/11 09:43:16;;;;;;;18.45;13.60;;;8.20;59.00;;;;;;6123121;22;94913;-71
2022/03/11 09:45:45;;;;;;;21.88;15.10;;;8.20;59.40;;;;;;6125081;22;92419;-71
2022/03/11 09:48:15;;;;;;;20.27;14.73;;;8.30;59.30;;;;;;6124602;22;92885;-71
2022/03/11 09:50:42;;;;;;;19.52;14.82;;;8.30;57.70;;;;;;6124732;22;92984;-71
2022/03/11 09:53:10;;;;;;;19.92;13.85;;;8.20;58.40;;;;;;6122853;23;92348;-71
2022/03/11 09:55:39;;;;;;;22.23;16.45;;;8.30;58.10;;;;;;6124183;23;96246;-71
2022/03/11 09:58:06;;;;;;;19.38;14.75;;;8.40;57.10;;;;;;6124507;23;93329;-71
2022/03/11 10:00:34;;;;;;;18.88;14.80;;;8.40;57.40;;;;;;6125074;22;92919;-71
2022/03/11 10:03:01;;;;;;;15.65;11.02;;;8.40;57.10;;;;;;6122944;23;92490;-70
2022/03/11 10:05:51;;;;;;;21.75;15.77;;;8.50;58.10;;;;;;6122892;23;92382;-70
2022/03/11 10:08:37;;;;;;;21.17;13.93;;;8.60;57.30;;;;;;6121531;23;94844;-71
2022/03/11 10:11:25;;;;;;;18.20;11.32;;;8.70;56.90;;;;;;6122644;23;97930;-71
2022/03/11 10:14:07;;;;;;;18.20;14.15;;;8.80;56.50;;;;;;6123254;23;92417;-71
2022/03/11 10:16:36;;;;;;;20.58;13.63;;;8.90;56.00;;;;;;6123361;23;92480;-71
2022/03/11 10:19:04;;;;;;;17.85;13.15;;;9.00;55.30;;;;;;6123161;23;93206;-71
2022/03/11 10:21:32;;;;;;;19.20;13.85;;;9.00;55.60;;;;;;6097846;23;95748;-71
2022/03/11 10:24:01;;;;;;;16.48;13.38;;;9.10;54.90;;;;;;6123359;23;92345;-76
2022/03/11 10:26:41;;;;;;;18.88;13.57;;;9.20;54.80;;;;;;6125623;22;91610;-76
2022/03/11 10:29:14;;;;;;;20.50;14.68;;;9.30;54.80;;;;;;6125075;22;93058;-76
2022/03/11 10:31:45;;;;;;;20.35;13.95;;;9.40;54.00;;;;;;6123794;23;92690;-76
2022/03/11 10:34:26;;;;;;;18.55;11.98;;;9.40;54.40;;;;;;6123511;23;94797;-76
2022/03/11 10:36:53;;;;;;;15.75;13.20;;;9.50;54.10;;;;;;6125444;22;92345;-76
2022/03/11 10:39:26;;;;;;;17.10;12.38;;;9.50;51.80;;;;;;6122922;23;101377;-76
2022/03/11 10:42:20;;;;;;;19.38;12.35;;;9.60;52.50;;;;;;6123517;23;95490;-76
2022/03/11 10:44:59;;;;;;;18.63;13.73;;;9.80;51.30;;;;;;6125300;22;92719;-76
2022/03/11 10:47:28;;;;;;;24.33;13.82;;;9.90;51.00;;;;;;6125133;22;92379;-76
2022/03/11 10:49:58;;;;;;;16.45;10.95;;;9.90;50.20;;;;;;6125059;22;92464;-76
2022/03/11 10:52:51;;;;;;;17.08;12.88;;;9.90;50.00;;;;;;6125360;22;92835;-76
2022/03/11 10:55:28;;;;;;;18.33;13.18;;;10.00;49.90;;;;;;6143023;22;92751;-76
2022/03/11 10:57:57;;;;;;;19.30;14.20;;;10.00;49.90;;;;;;6123775;23;92803;-76
2022/03/11 11:00:26;;;;;;;19.13;12.40;;;10.00;49.30;;;;;;6096962;23;96451;-76
2022/03/11 11:02:56;;;;;;;18.02;12.18;;;10.10;50.10;;;;;;6124747;22;95385;-77
2022/03/11 11:05:25;;;;;;;12.77;10.60;;;10.20;50.60;;;;;;6124875;23;92391;-76
2022/03/11 11:07:52;;;;;;;20.55;14.52;;;10.20;49.70;;;;;;6125210;23;92386;-76
2022/03/11 11:10:21;;;;;;;16.63;13.35;;;10.40;49.80;;;;;;6123028;23;95879;-76
2022/03/11 11:12:50;;;;;;;16.67;11.65;;;10.40;49.50;;;;;;6125133;23;92981;-76
2022/03/11 11:15:18;;;;;;;18.48;13.75;;;10.50;48.70;;;;;;6125022;23;92403;-76
2022/03/11 11:17:46;;;;;;;21.13;13.23;;;10.50;48.60;;;;;;6125384;23;91801;-76
2022/03/11 11:20:21;;;;;;;15.40;11.90;;;10.60;48.40;;;;;;6123016;23;94179;-76
2022/03/11 11:22:51;;;;;;;21.10;13.93;;;10.60;47.90;;;;;;6124879;23;92973;-76
2022/03/11 11:25:20;;;;;;;17.60;13.45;;;10.60;48.40;;;;;;6123239;22;94825;-77
2022/03/11 11:27:48;;;;;;;17.50;13.05;;;10.60;48.60;;;;;;6124804;23;92370;-76
2022/03/11 11:30:21;;;;;;;18.20;13.25;;;10.60;47.40;;;;;;6124620;23;93189;-76
2022/03/11 11:32:52;;;;;;;14.52;11.00;;;10.70;47.20;;;;;;6124568;23;93036;-76
2022/03/11 11:35:27;;;;;;;14.93;11.07;;;10.70;47.50;;;;;;6098482;23;92329;-76
2022/03/11 11:37:56;;;;;;;14.95;12.55;;;10.80;48.60;;;;;;6123466;23;92305;-76
2022/03/11 11:40:34;;;;;;;18.33;12.90;;;10.90;48.40;;;;;;6099256;23;95777;-76
2022/03/11 11:43:13;;;;;;;20.02;13.10;;;11.00;46.80;;;;;;6122931;23;93927;-76
2022/03/11 11:45:47;;;;;;;15.48;13.15;;;11.00;46.30;;;;;;6124768;23;92312;-77
2022/03/11 11:48:32;;;;;;;15.43;11.60;;;11.00;46.30;;;;;;6125036;22;92323;-76
2022/03/11 11:51:00;;;;;;;13.65;11.55;;;11.00;45.80;;;;;;6121444;23;95556;-76
2022/03/11 11:53:41;;;;;;;15.30;12.07;;;11.00;45.30;;;;;;6122516;23;95589;-76
2022/03/11 11:56:33;;;;;;;18.40;12.68;;;11.00;45.50;;;;;;6124448;22;92450;-76
2022/03/11 11:59:03;;;;;;;12.90;11.27;;;11.20;45.00;;;;;;6124913;22;92352;-76
2022/03/11 12:01:39;;;;;;;17.33;11.70;;;11.20;46.00;;;;;;6124360;23;92455;-76
2022/03/11 12:04:28;;;;;;;16.40;11.57;;;11.30;46.10;;;;;;6124198;22;92950;-76
2022/03/11 12:06:57;;;;;;;13.55;11.55;;;11.50;45.20;;;;;;6122941;23;92382;-76
2022/03/11 12:09:42;;;;;;;16.50;11.23;;;11.50;44.00;;;;;;6124980;22;91656;-76
2022/03/11 12:12:35;;;;;;;13.93;10.27;;;11.60;45.00;;;;;;6098238;23;95659;-76
2022/03/11 12:15:05;;;;;;;15.15;12.25;;;11.60;44.00;;;;;;6124457;22;92884;-76
2022/03/11 12:17:39;;;;;;;16.95;11.68;;;11.70;43.70;;;;;;6122186;23;94953;-76
2022/03/11 12:20:25;;;;;;;;;;;11.80;44.30;;;;;;6126241;22;92495;-76
2022/03/11 12:23:11;;;;;;;13.70;10.90;;;11.80;43.20;;;;;;6126317;23;92766;-76
2022/03/11 12:25:40;;;;;;;15.55;12.40;;;12.00;42.90;;;;;;6123671;23;93052;-71
2022/03/11 12:28:19;;;;;;;14.70;12.32;;;12.00;42.10;;;;;;6098824;23;92810;-71
2022/03/11 12:30:52;;;;;;;13.85;10.07;;;12.00;42.10;;;;;;6125244;23;92929;-71
2022/03/11 12:33:21;;;;;;;;;;;12.00;44.10;;;;;;6125630;22;93164;-71
2022/03/11 12:35:52;;;;;;;16.65;11.13;;;12.10;43.70;;;;;;6126946;22;102197;-71
2022/03/11 12:38:22;;;;;;;16.27;11.65;;;12.20;41.80;;;;;;6099394;23;92356;-71
2022/03/11 12:40:50;;;;;;;12.63;10.48;;;12.20;40.80;;;;;;6125056;23;92405;-71
2022/03/11 12:43:21;;;;;;;14.25;10.20;;;12.20;42.40;;;;;;6121481;23;98151;-71
2022/03/11 12:45:50;;;;;;;16.65;11.30;;;12.30;41.60;;;;;;6124730;22;95314;-71
2022/03/11 12:48:22;;;;;;;16.20;11.80;;;12.50;41.00;;;;;;6123705;23;92844;-71